sensor_id;sensor_type;location;lat;lon;timestamp;P1;durP1;ratioP1;P2;durP2;ratioP2
15498;SDS011;7851;52.260;6.030;2023-10-08T00:00:59;11.2;;;6.5;;
15498;SDS011;7851;52.260;6.030;2023-10-08T00:01:48;14.7;;;7.5;;
15498;SDS011;7851;52.260;6.030;2023-10-08T00:02:48;15.1;;;7.5;;
15498;SDS011;7851;52.260;6.030;2023-10-08T00:03:48;12.5;;;7.5;;
15498;SDS011;7851;52.260;6.030;2023-10-08T00:04:48;21;;;7.3;;
15498;SDS011;7851;52.260;6.030;2023-10-08T00:05:48;13.4;;;7.5;;
15498;SDS011;7851;52.260;6.030;2023-10-08T00:06:48;15.8;;;7;;
15498;SDS011;7851;52.260;6.030;2023-10-08T00:07:48;13.8;;;7.2;;
15498;SDS011;7851;52.260;6.030;2023-10-08T00:08:48;13.5;;;7.1;;
15498;SDS011;7851;52.260;6.030;2023-10-08T00:09:48;14.5;;;7.3;;
15498;SDS011;7851;52.260;6.030;2023-10-08T00:10:47;10.6;;;7.7;;
15498;SDS011;7851;52.260;6.030;2023-10-08T00:11:48;14.4;;;7.2;;
15498;SDS011;7851;52.260;6.030;2023-10-08T00:12:48;13.2;;;7.8;;
15498;SDS011;7851;52.260;6.030;2023-10-08T00:13:48;11.4;;;7.1;;
15498;SDS011;7851;52.260;6.030;2023-10-08T00:14:48;19.4;;;7.2;;
15498;SDS011;7851;52.260;6.030;2023-10-08T00:15:47;17.6;;;7.7;;
15498;SDS011;7851;52.260;6.030;2023-10-08T00:16:48;16.1;;;7.9;;
15498;SDS011;7851;52.260;6.030;2023-10-08T00:17:48;10.4;;;7.3;;
15498;SDS011;7851;52.260;6.030;2023-10-08T00:18:48;12.1;;;7.6;;
15498;SDS011;7851;52.260;6.030;2023-10-08T00:19:48;13.4;;;7.7;;
15498;SDS011;7851;52.260;6.030;2023-10-08T00:20:48;9.6;;;7.4;;
15498;SDS011;7851;52.260;6.030;2023-10-08T00:21:48;12.8;;;7.6;;
15498;SDS011;7851;52.260;6.030;2023-10-08T00:22:47;13.7;;;7.8;;
15498;SDS011;7851;52.260;6.030;2023-10-08T00:23:48;14.3;;;7.5;;
15498;SDS011;7851;52.260;6.030;2023-10-08T00:24:47;16;;;7.1;;
15498;SDS011;7851;52.260;6.030;2023-10-08T00:25:48;18.7;;;7.6;;
15498;SDS011;7851;52.260;6.030;2023-10-08T00:26:47;17.3;;;8.4;;
15498;SDS011;7851;52.260;6.030;2023-10-08T00:27:47;23;;;9;;
15498;SDS011;7851;52.260;6.030;2023-10-08T00:28:48;14.1;;;9.1;;
15498;SDS011;7851;52.260;6.030;2023-10-08T00:29:48;12.8;;;8;;
15498;SDS011;7851;52.260;6.030;2023-10-08T00:30:48;13.8;;;8.6;;
15498;SDS011;7851;52.260;6.030;2023-10-08T00:31:48;10.7;;;7.5;;
15498;SDS011;7851;52.260;6.030;2023-10-08T00:32:48;12.5;;;8.5;;
15498;SDS011;7851;52.260;6.030;2023-10-08T00:33:48;11.7;;;7.9;;
15498;SDS011;7851;52.260;6.030;2023-10-08T00:34:47;12;;;8.2;;
15498;SDS011;7851;52.260;6.030;2023-10-08T00:35:48;17.3;;;8.2;;
15498;SDS011;7851;52.260;6.030;2023-10-08T00:36:48;11.6;;;7.7;;
15498;SDS011;7851;52.260;6.030;2023-10-08T00:37:47;15.1;;;7.6;;
15498;SDS011;7851;52.260;6.030;2023-10-08T00:38:48;14.2;;;7.8;;
15498;SDS011;7851;52.260;6.030;2023-10-08T00:39:47;15.4;;;8.7;;
15498;SDS011;7851;52.260;6.030;2023-10-08T00:40:47;18.9;;;9.2;;
15498;SDS011;7851;52.260;6.030;2023-10-08T00:41:48;15.5;;;7.7;;
15498;SDS011;7851;52.260;6.030;2023-10-08T00:42:48;9.9;;;8;;
15498;SDS011;7851;52.260;6.030;2023-10-08T00:43:48;14.6;;;8.3;;
15498;SDS011;7851;52.260;6.030;2023-10-08T00:44:47;13.4;;;8.1;;
15498;SDS011;7851;52.260;6.030;2023-10-08T00:45:47;11.3;;;7.6;;
15498;SDS011;7851;52.260;6.030;2023-10-08T00:46:48;17.3;;;8.1;;
15498;SDS011;7851;52.260;6.030;2023-10-08T00:47:48;18.2;;;7.8;;
15498;SDS011;7851;52.260;6.030;2023-10-08T00:48:48;17.2;;;8.4;;
15498;SDS011;7851;52.260;6.030;2023-10-08T00:49:48;12.8;;;7.3;;
15498;SDS011;7851;52.260;6.030;2023-10-08T00:50:47;11.9;;;7.8;;
15498;SDS011;7851;52.260;6.030;2023-10-08T00:51:48;14.2;;;8;;
15498;SDS011;7851;52.260;6.030;2023-10-08T00:52:48;13.8;;;8.2;;
15498;SDS011;7851;52.260;6.030;2023-10-08T00:53:47;9.8;;;7.4;;
15498;SDS011;7851;52.260;6.030;2023-10-08T00:54:48;16.2;;;7.9;;
15498;SDS011;7851;52.260;6.030;2023-10-08T00:55:47;13.9;;;8.2;;
15498;SDS011;7851;52.260;6.030;2023-10-08T00:56:48;8.4;;;7.4;;
15498;SDS011;7851;52.260;6.030;2023-10-08T00:57:47;10.1;;;7.9;;
15498;SDS011;7851;52.260;6.030;2023-10-08T00:58:47;13.6;;;7.9;;
15498;SDS011;7851;52.260;6.030;2023-10-08T00:59:48;12.4;;;7.8;;
15498;SDS011;7851;52.260;6.030;2023-10-08T01:00:47;14.3;;;8.8;;
15498;SDS011;7851;52.260;6.030;2023-10-08T01:01:48;16.1;;;8.1;;
15498;SDS011;7851;52.260;6.030;2023-10-08T01:02:48;12.4;;;8;;
15498;SDS011;7851;52.260;6.030;2023-10-08T01:03:48;13.6;;;7.5;;
15498;SDS011;7851;52.260;6.030;2023-10-08T01:04:47;16.2;;;8;;
15498;SDS011;7851;52.260;6.030;2023-10-08T01:05:47;15.8;;;8.2;;
15498;SDS011;7851;52.260;6.030;2023-10-08T01:06:48;11.3;;;8.2;;
15498;SDS011;7851;52.260;6.030;2023-10-08T01:07:47;14.5;;;7.8;;
15498;SDS011;7851;52.260;6.030;2023-10-08T01:08:47;19.6;;;8.7;;
15498;SDS011;7851;52.260;6.030;2023-10-08T01:09:47;15.2;;;7.5;;
15498;SDS011;7851;52.260;6.030;2023-10-08T01:10:47;10.8;;;7.4;;
15498;SDS011;7851;52.260;6.030;2023-10-08T01:12:06;14.8;;;7.9;;
15498;SDS011;7851;52.260;6.030;2023-10-08T01:12:48;9.3;;;7.6;;
15498;SDS011;7851;52.260;6.030;2023-10-08T01:13:48;14.8;;;7.6;;
15498;SDS011;7851;52.260;6.030;2023-10-08T01:14:48;10.1;;;7;;
15498;SDS011;7851;52.260;6.030;2023-10-08T01:15:48;13.1;;;8.2;;
15498;SDS011;7851;52.260;6.030;2023-10-08T01:16:47;12.1;;;8;;
15498;SDS011;7851;52.260;6.030;2023-10-08T01:17:47;13.1;;;8.8;;
15498;SDS011;7851;52.260;6.030;2023-10-08T01:18:47;13.7;;;8.1;;
15498;SDS011;7851;52.260;6.030;2023-10-08T01:19:48;14.2;;;9.9;;
15498;SDS011;7851;52.260;6.030;2023-10-08T01:20:47;15.8;;;13.3;;
15498;SDS011;7851;52.260;6.030;2023-10-08T01:21:47;15.3;;;14.1;;
15498;SDS011;7851;52.260;6.030;2023-10-08T01:22:48;14.4;;;12.9;;
15498;SDS011;7851;52.260;6.030;2023-10-08T01:23:47;16;;;10.1;;
15498;SDS011;7851;52.260;6.030;2023-10-08T01:24:48;10.5;;;8.6;;
15498;SDS011;7851;52.260;6.030;2023-10-08T01:25:48;13.2;;;9;;
15498;SDS011;7851;52.260;6.030;2023-10-08T01:26:48;14.4;;;8.9;;
15498;SDS011;7851;52.260;6.030;2023-10-08T01:27:48;11.8;;;8.9;;
15498;SDS011;7851;52.260;6.030;2023-10-08T01:28:47;11.1;;;8.5;;
15498;SDS011;7851;52.260;6.030;2023-10-08T01:29:48;10.6;;;8.8;;
15498;SDS011;7851;52.260;6.030;2023-10-08T01:30:47;16.5;;;9;;
15498;SDS011;7851;52.260;6.030;2023-10-08T01:31:48;10.6;;;8.1;;
15498;SDS011;7851;52.260;6.030;2023-10-08T01:32:47;13.4;;;8.1;;
15498;SDS011;7851;52.260;6.030;2023-10-08T01:33:47;13.4;;;8.5;;
15498;SDS011;7851;52.260;6.030;2023-10-08T01:34:48;13.9;;;8.7;;
15498;SDS011;7851;52.260;6.030;2023-10-08T01:35:47;13.9;;;8.9;;
15498;SDS011;7851;52.260;6.030;2023-10-08T01:36:47;17.6;;;10.5;;
15498;SDS011;7851;52.260;6.030;2023-10-08T01:37:48;10.2;;;8.6;;
15498;SDS011;7851;52.260;6.030;2023-10-08T01:38:48;9.4;;;8;;
15498;SDS011;7851;52.260;6.030;2023-10-08T01:39:47;11.2;;;8.5;;
15498;SDS011;7851;52.260;6.030;2023-10-08T01:40:48;9.4;;;8.2;;
15498;SDS011;7851;52.260;6.030;2023-10-08T01:41:47;11.7;;;8.9;;
15498;SDS011;7851;52.260;6.030;2023-10-08T01:42:50;9.8;;;8.9;;
15498;SDS011;7851;52.260;6.030;2023-10-08T01:43:48;11.6;;;9;;
15498;SDS011;7851;52.260;6.030;2023-10-08T01:44:48;12.2;;;9.2;;
15498;SDS011;7851;52.260;6.030;2023-10-08T01:45:48;14.6;;;9.1;;
15498;SDS011;7851;52.260;6.030;2023-10-08T01:46:47;15.6;;;8.5;;
15498;SDS011;7851;52.260;6.030;2023-10-08T01:47:47;12;;;8.3;;
15498;SDS011;7851;52.260;6.030;2023-10-08T01:48:47;17.6;;;9.1;;
15498;SDS011;7851;52.260;6.030;2023-10-08T01:49:48;17.3;;;9.2;;
15498;SDS011;7851;52.260;6.030;2023-10-08T01:50:48;15.5;;;9.8;;
15498;SDS011;7851;52.260;6.030;2023-10-08T01:51:47;12.2;;;9.1;;
15498;SDS011;7851;52.260;6.030;2023-10-08T01:52:48;11.6;;;8.5;;
15498;SDS011;7851;52.260;6.030;2023-10-08T01:53:48;11.4;;;8.8;;
15498;SDS011;7851;52.260;6.030;2023-10-08T01:54:48;14.7;;;8.9;;
15498;SDS011;7851;52.260;6.030;2023-10-08T01:55:47;13.7;;;9.6;;
15498;SDS011;7851;52.260;6.030;2023-10-08T01:56:48;13.4;;;9.6;;
15498;SDS011;7851;52.260;6.030;2023-10-08T01:57:48;14.1;;;10;;
15498;SDS011;7851;52.260;6.030;2023-10-08T01:58:47;15.5;;;10.5;;
15498;SDS011;7851;52.260;6.030;2023-10-08T01:59:47;9.8;;;7.7;;
15498;SDS011;7851;52.260;6.030;2023-10-08T02:00:48;12.6;;;9.1;;
15498;SDS011;7851;52.260;6.030;2023-10-08T02:01:47;10.4;;;9.3;;
15498;SDS011;7851;52.260;6.030;2023-10-08T02:02:49;13.2;;;8.8;;
15498;SDS011;7851;52.260;6.030;2023-10-08T02:03:47;12.7;;;8.9;;
15498;SDS011;7851;52.260;6.030;2023-10-08T02:04:47;14.1;;;10.4;;
15498;SDS011;7851;52.260;6.030;2023-10-08T02:05:47;13.5;;;9.6;;
15498;SDS011;7851;52.260;6.030;2023-10-08T02:06:47;10.4;;;9.4;;
15498;SDS011;7851;52.260;6.030;2023-10-08T02:07:48;11.9;;;8.9;;
15498;SDS011;7851;52.260;6.030;2023-10-08T02:08:48;15.4;;;11.5;;
15498;SDS011;7851;52.260;6.030;2023-10-08T02:09:48;15.2;;;10.3;;
15498;SDS011;7851;52.260;6.030;2023-10-08T02:10:47;10.2;;;9.2;;
15498;SDS011;7851;52.260;6.030;2023-10-08T02:11:48;11.9;;;9.8;;
15498;SDS011;7851;52.260;6.030;2023-10-08T02:12:47;15.9;;;10.5;;
15498;SDS011;7851;52.260;6.030;2023-10-08T02:13:47;12.6;;;9.7;;
15498;SDS011;7851;52.260;6.030;2023-10-08T02:14:47;13.1;;;9.9;;
15498;SDS011;7851;52.260;6.030;2023-10-08T02:15:49;18.2;;;10.5;;
15498;SDS011;7851;52.260;6.030;2023-10-08T02:16:48;14.7;;;10.4;;
15498;SDS011;7851;52.260;6.030;2023-10-08T02:17:47;14.6;;;10.4;;
15498;SDS011;7851;52.260;6.030;2023-10-08T02:18:47;12.3;;;10.2;;
15498;SDS011;7851;52.260;6.030;2023-10-08T02:19:47;15.9;;;10.4;;
15498;SDS011;7851;52.260;6.030;2023-10-08T02:20:47;12.6;;;9.9;;
15498;SDS011;7851;52.260;6.030;2023-10-08T02:21:47;14.1;;;10.3;;
15498;SDS011;7851;52.260;6.030;2023-10-08T02:22:48;17.6;;;10.6;;
15498;SDS011;7851;52.260;6.030;2023-10-08T02:23:47;16.2;;;11.7;;
15498;SDS011;7851;52.260;6.030;2023-10-08T02:24:49;17.9;;;11;;
15498;SDS011;7851;52.260;6.030;2023-10-08T02:25:47;13.2;;;11;;
15498;SDS011;7851;52.260;6.030;2023-10-08T02:26:47;17.4;;;11.4;;
15498;SDS011;7851;52.260;6.030;2023-10-08T02:27:47;12.2;;;10;;
15498;SDS011;7851;52.260;6.030;2023-10-08T02:28:47;22.1;;;12.5;;
15498;SDS011;7851;52.260;6.030;2023-10-08T02:29:47;16.1;;;11.9;;
15498;SDS011;7851;52.260;6.030;2023-10-08T02:30:47;15.5;;;10.3;;
15498;SDS011;7851;52.260;6.030;2023-10-08T02:31:47;12.4;;;10.7;;
15498;SDS011;7851;52.260;6.030;2023-10-08T02:32:47;13.1;;;10.3;;
15498;SDS011;7851;52.260;6.030;2023-10-08T02:33:48;16.7;;;11.2;;
15498;SDS011;7851;52.260;6.030;2023-10-08T02:34:47;11.8;;;10.6;;
15498;SDS011;7851;52.260;6.030;2023-10-08T02:35:47;12.4;;;11.1;;
15498;SDS011;7851;52.260;6.030;2023-10-08T02:36:48;10.8;;;9.9;;
15498;SDS011;7851;52.260;6.030;2023-10-08T02:37:47;12.6;;;10.2;;
15498;SDS011;7851;52.260;6.030;2023-10-08T02:38:47;11.4;;;9.1;;
15498;SDS011;7851;52.260;6.030;2023-10-08T02:39:47;12;;;10.2;;
15498;SDS011;7851;52.260;6.030;2023-10-08T02:40:48;10.3;;;9.4;;
15498;SDS011;7851;52.260;6.030;2023-10-08T02:41:48;9.8;;;8.7;;
15498;SDS011;7851;52.260;6.030;2023-10-08T02:42:48;14.6;;;9.8;;
15498;SDS011;7851;52.260;6.030;2023-10-08T02:43:47;9.7;;;8.8;;
15498;SDS011;7851;52.260;6.030;2023-10-08T02:44:48;9.4;;;8.5;;
15498;SDS011;7851;52.260;6.030;2023-10-08T02:45:47;9.8;;;8.9;;
15498;SDS011;7851;52.260;6.030;2023-10-08T02:46:48;9.3;;;8.5;;
15498;SDS011;7851;52.260;6.030;2023-10-08T02:47:47;10.3;;;9.3;;
15498;SDS011;7851;52.260;6.030;2023-10-08T02:48:48;8.7;;;7.9;;
15498;SDS011;7851;52.260;6.030;2023-10-08T02:49:47;8.9;;;7.8;;
15498;SDS011;7851;52.260;6.030;2023-10-08T02:50:47;8.2;;;6.8;;
15498;SDS011;7851;52.260;6.030;2023-10-08T02:51:48;6.5;;;6;;
15498;SDS011;7851;52.260;6.030;2023-10-08T02:52:47;7;;;6.5;;
15498;SDS011;7851;52.260;6.030;2023-10-08T02:53:47;6.3;;;5.8;;
15498;SDS011;7851;52.260;6.030;2023-10-08T02:54:47;5.9;;;5.1;;
15498;SDS011;7851;52.260;6.030;2023-10-08T02:55:47;5.4;;;4.9;;
15498;SDS011;7851;52.260;6.030;2023-10-08T02:56:48;6.2;;;5.7;;
15498;SDS011;7851;52.260;6.030;2023-10-08T02:57:47;5.8;;;5.4;;
15498;SDS011;7851;52.260;6.030;2023-10-08T02:58:47;5.6;;;5;;
15498;SDS011;7851;52.260;6.030;2023-10-08T02:59:47;7.9;;;5.1;;
15498;SDS011;7851;52.260;6.030;2023-10-08T03:00:48;5.2;;;4.7;;
15498;SDS011;7851;52.260;6.030;2023-10-08T03:01:48;4.7;;;4.4;;
15498;SDS011;7851;52.260;6.030;2023-10-08T03:02:47;4.4;;;4.2;;
15498;SDS011;7851;52.260;6.030;2023-10-08T03:03:47;4.4;;;4;;
15498;SDS011;7851;52.260;6.030;2023-10-08T03:04:48;4.2;;;3.5;;
15498;SDS011;7851;52.260;6.030;2023-10-08T03:05:49;4;;;3;;
15498;SDS011;7851;52.260;6.030;2023-10-08T03:06:48;2.7;;;2.6;;
15498;SDS011;7851;52.260;6.030;2023-10-08T03:07:47;2.9;;;2.8;;
15498;SDS011;7851;52.260;6.030;2023-10-08T03:08:47;3;;;2.9;;
15498;SDS011;7851;52.260;6.030;2023-10-08T03:09:47;3.5;;;3.3;;
15498;SDS011;7851;52.260;6.030;2023-10-08T03:10:48;3.1;;;3;;
15498;SDS011;7851;52.260;6.030;2023-10-08T03:11:47;3.7;;;3.4;;
15498;SDS011;7851;52.260;6.030;2023-10-08T03:12:47;2.7;;;2.6;;
15498;SDS011;7851;52.260;6.030;2023-10-08T03:13:47;3;;;2.8;;
15498;SDS011;7851;52.260;6.030;2023-10-08T03:14:47;5.4;;;3;;
15498;SDS011;7851;52.260;6.030;2023-10-08T03:15:47;2.5;;;2.4;;
15498;SDS011;7851;52.260;6.030;2023-10-08T03:16:48;2.9;;;2.7;;
15498;SDS011;7851;52.260;6.030;2023-10-08T03:17:47;2.5;;;2.4;;
15498;SDS011;7851;52.260;6.030;2023-10-08T03:18:47;6.1;;;3.1;;
15498;SDS011;7851;52.260;6.030;2023-10-08T03:19:47;3.5;;;3.3;;
15498;SDS011;7851;52.260;6.030;2023-10-08T03:20:47;2.8;;;2.6;;
15498;SDS011;7851;52.260;6.030;2023-10-08T03:21:48;2.3;;;2.2;;
15498;SDS011;7851;52.260;6.030;2023-10-08T03:22:47;4.1;;;3;;
15498;SDS011;7851;52.260;6.030;2023-10-08T03:23:48;3;;;2.8;;
15498;SDS011;7851;52.260;6.030;2023-10-08T03:24:47;3.5;;;3.4;;
15498;SDS011;7851;52.260;6.030;2023-10-08T03:25:49;3.3;;;3.1;;
15498;SDS011;7851;52.260;6.030;2023-10-08T03:26:47;3;;;2.9;;
15498;SDS011;7851;52.260;6.030;2023-10-08T03:27:47;2.8;;;2.6;;
15498;SDS011;7851;52.260;6.030;2023-10-08T03:28:47;2.7;;;2.6;;
15498;SDS011;7851;52.260;6.030;2023-10-08T03:29:47;2.3;;;2.3;;
15498;SDS011;7851;52.260;6.030;2023-10-08T03:30:47;3.6;;;3.4;;
15498;SDS011;7851;52.260;6.030;2023-10-08T03:31:47;2.6;;;2.5;;
15498;SDS011;7851;52.260;6.030;2023-10-08T03:32:47;3.2;;;3.1;;
15498;SDS011;7851;52.260;6.030;2023-10-08T03:33:47;4.9;;;2.8;;
15498;SDS011;7851;52.260;6.030;2023-10-08T03:34:48;4.1;;;3.5;;
15498;SDS011;7851;52.260;6.030;2023-10-08T03:35:48;3.3;;;3.1;;
15498;SDS011;7851;52.260;6.030;2023-10-08T03:36:47;3.3;;;3.2;;
15498;SDS011;7851;52.260;6.030;2023-10-08T03:37:47;2.8;;;2.7;;
15498;SDS011;7851;52.260;6.030;2023-10-08T03:38:48;3.9;;;3.7;;
15498;SDS011;7851;52.260;6.030;2023-10-08T03:39:48;4.1;;;3.9;;
15498;SDS011;7851;52.260;6.030;2023-10-08T03:40:47;3.6;;;3.4;;
15498;SDS011;7851;52.260;6.030;2023-10-08T03:41:47;3.6;;;3.4;;
15498;SDS011;7851;52.260;6.030;2023-10-08T03:42:47;3.1;;;2.9;;
15498;SDS011;7851;52.260;6.030;2023-10-08T03:43:47;2.4;;;2.3;;
15498;SDS011;7851;52.260;6.030;2023-10-08T03:44:47;2.5;;;2.4;;
15498;SDS011;7851;52.260;6.030;2023-10-08T03:45:47;2.9;;;2.8;;
15498;SDS011;7851;52.260;6.030;2023-10-08T03:46:47;2.7;;;2.5;;
15498;SDS011;7851;52.260;6.030;2023-10-08T03:47:48;2.5;;;2.4;;
15498;SDS011;7851;52.260;6.030;2023-10-08T03:48:47;2.8;;;2.6;;
15498;SDS011;7851;52.260;6.030;2023-10-08T03:49:47;3;;;2.8;;
15498;SDS011;7851;52.260;6.030;2023-10-08T03:50:47;2.4;;;2.3;;
15498;SDS011;7851;52.260;6.030;2023-10-08T03:51:48;2.9;;;2.8;;
15498;SDS011;7851;52.260;6.030;2023-10-08T03:52:47;2.4;;;2.2;;
15498;SDS011;7851;52.260;6.030;2023-10-08T03:53:48;2.2;;;2.1;;
15498;SDS011;7851;52.260;6.030;2023-10-08T03:54:47;3.1;;;2.9;;
15498;SDS011;7851;52.260;6.030;2023-10-08T03:55:48;3.4;;;3.1;;
15498;SDS011;7851;52.260;6.030;2023-10-08T03:56:47;2.8;;;2.7;;
15498;SDS011;7851;52.260;6.030;2023-10-08T03:57:47;3.1;;;2.9;;
15498;SDS011;7851;52.260;6.030;2023-10-08T03:58:47;2.5;;;2.4;;
15498;SDS011;7851;52.260;6.030;2023-10-08T03:59:47;2.6;;;2.5;;
15498;SDS011;7851;52.260;6.030;2023-10-08T04:00:47;3.2;;;3.1;;
15498;SDS011;7851;52.260;6.030;2023-10-08T04:01:47;2.8;;;2.7;;
15498;SDS011;7851;52.260;6.030;2023-10-08T04:02:47;3.4;;;3.1;;
15498;SDS011;7851;52.260;6.030;2023-10-08T04:03:47;2.6;;;2.4;;
15498;SDS011;7851;52.260;6.030;2023-10-08T04:04:47;2.7;;;2.6;;
15498;SDS011;7851;52.260;6.030;2023-10-08T04:05:48;2.5;;;2.4;;
15498;SDS011;7851;52.260;6.030;2023-10-08T04:06:47;2.4;;;2.3;;
15498;SDS011;7851;52.260;6.030;2023-10-08T04:07:47;2.9;;;2.8;;
15498;SDS011;7851;52.260;6.030;2023-10-08T04:08:47;2.6;;;2.4;;
15498;SDS011;7851;52.260;6.030;2023-10-08T04:09:47;3.8;;;3.7;;
15498;SDS011;7851;52.260;6.030;2023-10-08T04:10:47;2.8;;;2.6;;
15498;SDS011;7851;52.260;6.030;2023-10-08T04:11:47;2.6;;;2.4;;
15498;SDS011;7851;52.260;6.030;2023-10-08T04:12:47;2.6;;;2.5;;
15498;SDS011;7851;52.260;6.030;2023-10-08T04:13:47;2.6;;;2.4;;
15498;SDS011;7851;52.260;6.030;2023-10-08T04:14:47;2.3;;;2.2;;
15498;SDS011;7851;52.260;6.030;2023-10-08T04:15:47;2.4;;;2.2;;
15498;SDS011;7851;52.260;6.030;2023-10-08T04:16:47;2.3;;;2.2;;
15498;SDS011;7851;52.260;6.030;2023-10-08T04:17:47;2.6;;;2.5;;
15498;SDS011;7851;52.260;6.030;2023-10-08T04:18:47;2.1;;;2.1;;
15498;SDS011;7851;52.260;6.030;2023-10-08T04:19:48;3.1;;;2.9;;
15498;SDS011;7851;52.260;6.030;2023-10-08T04:20:47;2.3;;;2.2;;
15498;SDS011;7851;52.260;6.030;2023-10-08T04:21:48;3;;;2.3;;
15498;SDS011;7851;52.260;6.030;2023-10-08T04:22:47;2.5;;;2.4;;
15498;SDS011;7851;52.260;6.030;2023-10-08T04:23:48;2.4;;;2.3;;
15498;SDS011;7851;52.260;6.030;2023-10-08T04:24:47;2.3;;;2.2;;
15498;SDS011;7851;52.260;6.030;2023-10-08T04:25:47;2.5;;;2.4;;
15498;SDS011;7851;52.260;6.030;2023-10-08T04:26:47;2.9;;;2.8;;
15498;SDS011;7851;52.260;6.030;2023-10-08T04:27:47;2.7;;;2.5;;
15498;SDS011;7851;52.260;6.030;2023-10-08T04:28:47;2.6;;;2.5;;
15498;SDS011;7851;52.260;6.030;2023-10-08T04:29:47;2.5;;;2.4;;
15498;SDS011;7851;52.260;6.030;2023-10-08T04:30:47;2.7;;;2.6;;
15498;SDS011;7851;52.260;6.030;2023-10-08T04:31:47;4.2;;;3.4;;
15498;SDS011;7851;52.260;6.030;2023-10-08T04:32:47;3.2;;;3.1;;
15498;SDS011;7851;52.260;6.030;2023-10-08T04:33:47;3.9;;;2.8;;
15498;SDS011;7851;52.260;6.030;2023-10-08T04:34:47;3;;;2.9;;
15498;SDS011;7851;52.260;6.030;2023-10-08T04:35:47;3;;;2.8;;
15498;SDS011;7851;52.260;6.030;2023-10-08T04:36:48;3.3;;;3.2;;
15498;SDS011;7851;52.260;6.030;2023-10-08T04:37:47;3;;;2.9;;
15498;SDS011;7851;52.260;6.030;2023-10-08T04:38:47;3.9;;;3.2;;
15498;SDS011;7851;52.260;6.030;2023-10-08T04:39:47;4.7;;;3.3;;
15498;SDS011;7851;52.260;6.030;2023-10-08T04:40:48;3.4;;;3.1;;
15498;SDS011;7851;52.260;6.030;2023-10-08T04:41:47;2.8;;;2.6;;
15498;SDS011;7851;52.260;6.030;2023-10-08T04:42:47;2.4;;;2.3;;
15498;SDS011;7851;52.260;6.030;2023-10-08T04:43:47;2.7;;;2.6;;
15498;SDS011;7851;52.260;6.030;2023-10-08T04:44:47;3.1;;;2.9;;
15498;SDS011;7851;52.260;6.030;2023-10-08T04:45:47;2.7;;;2.5;;
15498;SDS011;7851;52.260;6.030;2023-10-08T04:46:47;2.8;;;2.7;;
15498;SDS011;7851;52.260;6.030;2023-10-08T04:47:47;2.9;;;2.8;;
15498;SDS011;7851;52.260;6.030;2023-10-08T04:48:47;2.4;;;2.3;;
15498;SDS011;7851;52.260;6.030;2023-10-08T04:49:47;2.8;;;2.7;;
15498;SDS011;7851;52.260;6.030;2023-10-08T04:50:48;3.3;;;2.9;;
15498;SDS011;7851;52.260;6.030;2023-10-08T04:51:47;3;;;2.9;;
15498;SDS011;7851;52.260;6.030;2023-10-08T04:52:47;3.4;;;3.2;;
15498;SDS011;7851;52.260;6.030;2023-10-08T04:53:47;3.4;;;3.2;;
15498;SDS011;7851;52.260;6.030;2023-10-08T04:54:47;3;;;2.8;;
15498;SDS011;7851;52.260;6.030;2023-10-08T04:55:47;3.9;;;3.8;;
15498;SDS011;7851;52.260;6.030;2023-10-08T04:56:47;4.3;;;4.1;;
15498;SDS011;7851;52.260;6.030;2023-10-08T04:57:47;3.7;;;3.6;;
15498;SDS011;7851;52.260;6.030;2023-10-08T04:58:47;4.1;;;3.8;;
15498;SDS011;7851;52.260;6.030;2023-10-08T04:59:48;5.2;;;4.7;;
15498;SDS011;7851;52.260;6.030;2023-10-08T05:00:47;3.8;;;3.7;;
15498;SDS011;7851;52.260;6.030;2023-10-08T05:01:47;4;;;3.9;;
15498;SDS011;7851;52.260;6.030;2023-10-08T05:02:47;3.9;;;3.5;;
15498;SDS011;7851;52.260;6.030;2023-10-08T05:03:48;3.9;;;3.7;;
15498;SDS011;7851;52.260;6.030;2023-10-08T05:04:48;3.9;;;3.7;;
15498;SDS011;7851;52.260;6.030;2023-10-08T05:05:47;3.6;;;3.5;;
15498;SDS011;7851;52.260;6.030;2023-10-08T05:06:47;3.7;;;3.5;;
15498;SDS011;7851;52.260;6.030;2023-10-08T05:07:48;4.1;;;3.9;;
15498;SDS011;7851;52.260;6.030;2023-10-08T05:08:47;5.1;;;4.8;;
15498;SDS011;7851;52.260;6.030;2023-10-08T05:09:48;3.7;;;3.5;;
15498;SDS011;7851;52.260;6.030;2023-10-08T05:10:47;4.4;;;4.2;;
15498;SDS011;7851;52.260;6.030;2023-10-08T05:11:48;4;;;3.8;;
15498;SDS011;7851;52.260;6.030;2023-10-08T05:12:47;4.6;;;4.2;;
15498;SDS011;7851;52.260;6.030;2023-10-08T05:13:47;4.2;;;3.9;;
15498;SDS011;7851;52.260;6.030;2023-10-08T05:14:47;3.9;;;3.7;;
15498;SDS011;7851;52.260;6.030;2023-10-08T05:15:47;4.2;;;4;;
15498;SDS011;7851;52.260;6.030;2023-10-08T05:16:47;3.7;;;3.5;;
15498;SDS011;7851;52.260;6.030;2023-10-08T05:17:48;3.8;;;3.5;;
15498;SDS011;7851;52.260;6.030;2023-10-08T05:18:47;4.2;;;4;;
15498;SDS011;7851;52.260;6.030;2023-10-08T05:19:48;4.2;;;3.9;;
15498;SDS011;7851;52.260;6.030;2023-10-08T05:20:47;3.9;;;3.7;;
15498;SDS011;7851;52.260;6.030;2023-10-08T05:21:47;5.1;;;3.8;;
15498;SDS011;7851;52.260;6.030;2023-10-08T05:22:47;4.6;;;4.4;;
15498;SDS011;7851;52.260;6.030;2023-10-08T05:23:47;4.7;;;4.5;;
15498;SDS011;7851;52.260;6.030;2023-10-08T05:24:48;5.1;;;4.8;;
15498;SDS011;7851;52.260;6.030;2023-10-08T05:25:48;5.1;;;4.9;;
15498;SDS011;7851;52.260;6.030;2023-10-08T05:26:47;4.9;;;4.4;;
15498;SDS011;7851;52.260;6.030;2023-10-08T05:27:47;6.7;;;6.2;;
15498;SDS011;7851;52.260;6.030;2023-10-08T05:28:47;4.5;;;4.3;;
15498;SDS011;7851;52.260;6.030;2023-10-08T05:29:47;4.7;;;4.5;;
15498;SDS011;7851;52.260;6.030;2023-10-08T05:30:47;5;;;4.7;;
15498;SDS011;7851;52.260;6.030;2023-10-08T05:31:47;5.5;;;5.2;;
15498;SDS011;7851;52.260;6.030;2023-10-08T05:32:47;5;;;4.8;;
15498;SDS011;7851;52.260;6.030;2023-10-08T05:33:47;4.6;;;4.4;;
15498;SDS011;7851;52.260;6.030;2023-10-08T05:34:47;4.8;;;4.7;;
15498;SDS011;7851;52.260;6.030;2023-10-08T05:35:47;6.1;;;5.8;;
15498;SDS011;7851;52.260;6.030;2023-10-08T05:36:47;5.1;;;4.9;;
15498;SDS011;7851;52.260;6.030;2023-10-08T05:37:47;4.8;;;4.6;;
15498;SDS011;7851;52.260;6.030;2023-10-08T05:38:47;4.7;;;4.5;;
15498;SDS011;7851;52.260;6.030;2023-10-08T05:39:47;4.7;;;4.5;;
15498;SDS011;7851;52.260;6.030;2023-10-08T05:40:48;5.5;;;5.2;;
15498;SDS011;7851;52.260;6.030;2023-10-08T05:41:47;5.2;;;4.9;;
15498;SDS011;7851;52.260;6.030;2023-10-08T05:42:47;5.9;;;5.6;;
15498;SDS011;7851;52.260;6.030;2023-10-08T05:43:47;5.4;;;5.2;;
15498;SDS011;7851;52.260;6.030;2023-10-08T05:44:47;4.7;;;4.5;;
15498;SDS011;7851;52.260;6.030;2023-10-08T05:45:47;5.4;;;5;;
15498;SDS011;7851;52.260;6.030;2023-10-08T05:46:47;6.5;;;6;;
15498;SDS011;7851;52.260;6.030;2023-10-08T05:47:47;6.1;;;5.9;;
15498;SDS011;7851;52.260;6.030;2023-10-08T05:48:47;5.2;;;5;;
15498;SDS011;7851;52.260;6.030;2023-10-08T05:49:49;5.1;;;4.9;;
15498;SDS011;7851;52.260;6.030;2023-10-08T05:50:47;5.2;;;5;;
15498;SDS011;7851;52.260;6.030;2023-10-08T05:51:47;5.1;;;4.9;;
15498;SDS011;7851;52.260;6.030;2023-10-08T05:52:47;5.5;;;5.3;;
15498;SDS011;7851;52.260;6.030;2023-10-08T05:53:47;5.9;;;5.6;;
15498;SDS011;7851;52.260;6.030;2023-10-08T05:54:47;6.3;;;5.9;;
15498;SDS011;7851;52.260;6.030;2023-10-08T05:55:47;6.1;;;5.9;;
15498;SDS011;7851;52.260;6.030;2023-10-08T05:56:47;6;;;5.7;;
15498;SDS011;7851;52.260;6.030;2023-10-08T05:57:47;6.4;;;6.1;;
15498;SDS011;7851;52.260;6.030;2023-10-08T05:58:47;6.5;;;6.2;;
15498;SDS011;7851;52.260;6.030;2023-10-08T05:59:47;6.1;;;5.8;;
15498;SDS011;7851;52.260;6.030;2023-10-08T06:00:47;7.2;;;6.8;;
15498;SDS011;7851;52.260;6.030;2023-10-08T06:01:47;6.7;;;6.4;;
15498;SDS011;7851;52.260;6.030;2023-10-08T06:02:47;5.9;;;5.7;;
15498;SDS011;7851;52.260;6.030;2023-10-08T06:03:47;6.2;;;5.8;;
15498;SDS011;7851;52.260;6.030;2023-10-08T06:04:47;5.7;;;5.5;;
15498;SDS011;7851;52.260;6.030;2023-10-08T06:05:47;5.7;;;5.4;;
15498;SDS011;7851;52.260;6.030;2023-10-08T06:06:47;6;;;5.5;;
15498;SDS011;7851;52.260;6.030;2023-10-08T06:07:48;5.6;;;5.4;;
15498;SDS011;7851;52.260;6.030;2023-10-08T06:08:48;5.4;;;5.1;;
15498;SDS011;7851;52.260;6.030;2023-10-08T06:09:47;5.3;;;5;;
15498;SDS011;7851;52.260;6.030;2023-10-08T06:10:47;5;;;4.8;;
15498;SDS011;7851;52.260;6.030;2023-10-08T06:11:48;6;;;5.5;;
15498;SDS011;7851;52.260;6.030;2023-10-08T06:12:47;5.5;;;5.2;;
15498;SDS011;7851;52.260;6.030;2023-10-08T06:13:47;6.1;;;5.9;;
15498;SDS011;7851;52.260;6.030;2023-10-08T06:14:47;5.6;;;5.3;;
15498;SDS011;7851;52.260;6.030;2023-10-08T06:15:48;5.9;;;5.5;;
15498;SDS011;7851;52.260;6.030;2023-10-08T06:16:47;6.3;;;5.9;;
15498;SDS011;7851;52.260;6.030;2023-10-08T06:17:47;6;;;5.7;;